sensor_id;sensor_type;location;lat;lon;timestamp;P1;durP1;ratioP1;P2;durP2;ratioP2
55224;SDS011;41091;49.400;8.684;2023-09-30T00:01:05;7.93;;;2.45;;
55224;SDS011;41091;49.400;8.684;2023-09-30T00:03:33;7.18;;;1.75;;
55224;SDS011;41091;49.400;8.684;2023-09-30T00:05:59;4.93;;;1.75;;
55224;SDS011;41091;49.400;8.684;2023-09-30T00:08:24;3.58;;;1.50;;
55224;SDS011;41091;49.400;8.684;2023-09-30T00:10:50;7.03;;;1.80;;
55224;SDS011;41091;49.400;8.684;2023-09-30T00:13:19;3.70;;;2.07;;
55224;SDS011;41091;49.400;8.684;2023-09-30T00:15:44;5.10;;;2.58;;
55224;SDS011;41091;49.400;8.684;2023-09-30T00:18:12;4.75;;;2.30;;
55224;SDS011;41091;49.400;8.684;2023-09-30T00:20:38;7.15;;;2.78;;
55224;SDS011;41091;49.400;8.684;2023-09-30T00:23:04;6.85;;;2.30;;
55224;SDS011;41091;49.400;8.684;2023-09-30T00:25:33;4.03;;;1.85;;
55224;SDS011;41091;49.400;8.684;2023-09-30T00:27:59;2.97;;;1.85;;
55224;SDS011;41091;49.400;8.684;2023-09-30T00:30:24;3.92;;;1.95;;
55224;SDS011;41091;49.400;8.684;2023-09-30T00:32:52;3.17;;;2.45;;
55224;SDS011;41091;49.400;8.684;2023-09-30T00:35:23;2.33;;;2.13;;
55224;SDS011;41091;49.400;8.684;2023-09-30T00:37:48;6.28;;;2.38;;
55224;SDS011;41091;49.400;8.684;2023-09-30T00:40:14;5.50;;;2.08;;
55224;SDS011;41091;49.400;8.684;2023-09-30T00:42:39;5.72;;;2.30;;
55224;SDS011;41091;49.400;8.684;2023-09-30T00:45:06;3.60;;;1.80;;
55224;SDS011;41091;49.400;8.684;2023-09-30T00:47:32;6.50;;;2.03;;
55224;SDS011;41091;49.400;8.684;2023-09-30T00:50:00;7.03;;;2.35;;
55224;SDS011;41091;49.400;8.684;2023-09-30T00:52:28;6.85;;;2.42;;
55224;SDS011;41091;49.400;8.684;2023-09-30T00:54:54;6.10;;;2.35;;
55224;SDS011;41091;49.400;8.684;2023-09-30T00:57:24;3.08;;;1.92;;
55224;SDS011;41091;49.400;8.684;2023-09-30T00:59:50;5.63;;;2.70;;
55224;SDS011;41091;49.400;8.684;2023-09-30T01:02:17;4.43;;;1.83;;
55224;SDS011;41091;49.400;8.684;2023-09-30T01:04:43;8.13;;;2.00;;
55224;SDS011;41091;49.400;8.684;2023-09-30T01:07:08;3.42;;;1.95;;
55224;SDS011;41091;49.400;8.684;2023-09-30T01:09:36;6.90;;;1.75;;
55224;SDS011;41091;49.400;8.684;2023-09-30T01:12:02;7.43;;;2.05;;
55224;SDS011;41091;49.400;8.684;2023-09-30T01:14:28;8.82;;;2.53;;
55224;SDS011;41091;49.400;8.684;2023-09-30T01:16:59;5.18;;;2.28;;
55224;SDS011;41091;49.400;8.684;2023-09-30T01:19:25;4.35;;;2.25;;
55224;SDS011;41091;49.400;8.684;2023-09-30T01:21:54;6.65;;;2.47;;
55224;SDS011;41091;49.400;8.684;2023-09-30T01:24:24;4.00;;;1.83;;
55224;SDS011;41091;49.400;8.684;2023-09-30T01:26:50;6.35;;;2.30;;
55224;SDS011;41091;49.400;8.684;2023-09-30T01:29:16;4.10;;;1.40;;
55224;SDS011;41091;49.400;8.684;2023-09-30T01:31:42;3.05;;;1.42;;
55224;SDS011;41091;49.400;8.684;2023-09-30T01:34:07;4.45;;;2.10;;
55224;SDS011;41091;49.400;8.684;2023-09-30T01:36:35;4.43;;;1.83;;
55224;SDS011;41091;49.400;8.684;2023-09-30T01:39:01;8.43;;;1.88;;
55224;SDS011;41091;49.400;8.684;2023-09-30T01:41:27;3.95;;;1.70;;
55224;SDS011;41091;49.400;8.684;2023-09-30T01:43:53;5.43;;;2.25;;
55224;SDS011;41091;49.400;8.684;2023-09-30T01:46:21;5.68;;;2.08;;
55224;SDS011;41091;49.400;8.684;2023-09-30T01:48:49;4.68;;;1.70;;
55224;SDS011;41091;49.400;8.684;2023-09-30T01:51:18;4.97;;;2.00;;
55224;SDS011;41091;49.400;8.684;2023-09-30T01:53:44;4.80;;;2.15;;
55224;SDS011;41091;49.400;8.684;2023-09-30T01:56:12;4.93;;;2.50;;
55224;SDS011;41091;49.400;8.684;2023-09-30T01:58:37;3.92;;;1.48;;
55224;SDS011;41091;49.400;8.684;2023-09-30T02:01:06;6.07;;;2.17;;
55224;SDS011;41091;49.400;8.684;2023-09-30T02:03:31;4.80;;;1.77;;
55224;SDS011;41091;49.400;8.684;2023-09-30T02:05:57;4.93;;;2.30;;
55224;SDS011;41091;49.400;8.684;2023-09-30T02:08:23;5.93;;;1.65;;
55224;SDS011;41091;49.400;8.684;2023-09-30T02:10:50;3.22;;;1.90;;
55224;SDS011;41091;49.400;8.684;2023-09-30T02:13:16;7.05;;;3.03;;
55224;SDS011;41091;49.400;8.684;2023-09-30T02:15:42;4.57;;;2.03;;
55224;SDS011;41091;49.400;8.684;2023-09-30T02:18:10;4.43;;;2.15;;
55224;SDS011;41091;49.400;8.684;2023-09-30T02:20:36;4.15;;;1.80;;
55224;SDS011;41091;49.400;8.684;2023-09-30T02:23:08;3.92;;;1.77;;
55224;SDS011;41091;49.400;8.684;2023-09-30T02:25:35;4.80;;;1.65;;
55224;SDS011;41091;49.400;8.684;2023-09-30T02:28:01;3.22;;;1.95;;
55224;SDS011;41091;49.400;8.684;2023-09-30T02:30:30;9.18;;;2.22;;
55224;SDS011;41091;49.400;8.684;2023-09-30T02:32:56;3.60;;;1.80;;
55224;SDS011;41091;49.400;8.684;2023-09-30T02:35:21;2.88;;;1.70;;
55224;SDS011;41091;49.400;8.684;2023-09-30T02:37:53;9.10;;;1.92;;
55224;SDS011;41091;49.400;8.684;2023-09-30T02:40:19;5.38;;;2.35;;
55224;SDS011;41091;49.400;8.684;2023-09-30T02:42:45;6.75;;;1.98;;
55224;SDS011;41091;49.400;8.684;2023-09-30T02:45:11;2.97;;;1.92;;
55224;SDS011;41091;49.400;8.684;2023-09-30T02:47:37;5.03;;;1.70;;
55224;SDS011;41091;49.400;8.684;2023-09-30T02:50:05;2.08;;;1.67;;
55224;SDS011;41091;49.400;8.684;2023-09-30T02:52:33;3.78;;;2.10;;
55224;SDS011;41091;49.400;8.684;2023-09-30T02:55:00;6.00;;;1.98;;
55224;SDS011;41091;49.400;8.684;2023-09-30T02:57:26;5.22;;;1.83;;
55224;SDS011;41091;49.400;8.684;2023-09-30T02:59:56;6.05;;;1.90;;
55224;SDS011;41091;49.400;8.684;2023-09-30T03:02:25;9.38;;;2.33;;
55224;SDS011;41091;49.400;8.684;2023-09-30T03:04:51;4.68;;;2.22;;
55224;SDS011;41091;49.400;8.684;2023-09-30T03:07:19;7.75;;;2.00;;
55224;SDS011;41091;49.400;8.684;2023-09-30T03:09:45;6.47;;;2.55;;
55224;SDS011;41091;49.400;8.684;2023-09-30T03:12:11;6.32;;;2.40;;
55224;SDS011;41091;49.400;8.684;2023-09-30T03:14:39;3.50;;;1.90;;
55224;SDS011;41091;49.400;8.684;2023-09-30T03:17:05;14.70;;;2.45;;
55224;SDS011;41091;49.400;8.684;2023-09-30T03:19:30;2.85;;;1.55;;
55224;SDS011;41091;49.400;8.684;2023-09-30T03:21:55;8.68;;;2.22;;
55224;SDS011;41091;49.400;8.684;2023-09-30T03:24:21;4.70;;;2.20;;
55224;SDS011;41091;49.400;8.684;2023-09-30T03:26:47;4.40;;;1.80;;
55224;SDS011;41091;49.400;8.684;2023-09-30T03:29:15;5.57;;;1.88;;
55224;SDS011;41091;49.400;8.684;2023-09-30T03:31:43;9.80;;;2.28;;
55224;SDS011;41091;49.400;8.684;2023-09-30T03:34:08;1.98;;;1.88;;
55224;SDS011;41091;49.400;8.684;2023-09-30T03:36:33;3.78;;;3.05;;
55224;SDS011;41091;49.400;8.684;2023-09-30T03:38:59;7.35;;;2.63;;
55224;SDS011;41091;49.400;8.684;2023-09-30T03:41:32;4.30;;;1.85;;
55224;SDS011;41091;49.400;8.684;2023-09-30T03:44:00;9.25;;;2.80;;
55224;SDS011;41091;49.400;8.684;2023-09-30T03:46:25;8.23;;;2.22;;
55224;SDS011;41091;49.400;8.684;2023-09-30T03:48:51;7.82;;;2.30;;
55224;SDS011;41091;49.400;8.684;2023-09-30T03:51:16;5.78;;;2.13;;
55224;SDS011;41091;49.400;8.684;2023-09-30T03:53:44;10.07;;;2.40;;
55224;SDS011;41091;49.400;8.684;2023-09-30T03:56:10;4.57;;;2.03;;
55224;SDS011;41091;49.400;8.684;2023-09-30T03:58:41;5.15;;;2.10;;
55224;SDS011;41091;49.400;8.684;2023-09-30T04:01:07;6.72;;;2.03;;
55224;SDS011;41091;49.400;8.684;2023-09-30T04:03:40;10.38;;;1.83;;
55224;SDS011;41091;49.400;8.684;2023-09-30T04:06:05;5.75;;;2.15;;
55224;SDS011;41091;49.400;8.684;2023-09-30T04:08:36;3.70;;;1.85;;
55224;SDS011;41091;49.400;8.684;2023-09-30T04:11:02;5.03;;;2.17;;
55224;SDS011;41091;49.400;8.684;2023-09-30T04:13:31;5.68;;;2.15;;
55224;SDS011;41091;49.400;8.684;2023-09-30T04:15:56;4.93;;;2.55;;
55224;SDS011;41091;49.400;8.684;2023-09-30T04:18:24;6.53;;;2.75;;
55224;SDS011;41091;49.400;8.684;2023-09-30T04:20:52;7.70;;;3.10;;
55224;SDS011;41091;49.400;8.684;2023-09-30T04:23:20;8.60;;;2.88;;
55224;SDS011;41091;49.400;8.684;2023-09-30T04:25:46;8.65;;;3.00;;
55224;SDS011;41091;49.400;8.684;2023-09-30T04:28:12;6.18;;;2.50;;
55224;SDS011;41091;49.400;8.684;2023-09-30T04:30:41;8.13;;;3.13;;
55224;SDS011;41091;49.400;8.684;2023-09-30T04:33:06;5.40;;;2.08;;
55224;SDS011;41091;49.400;8.684;2023-09-30T04:35:33;3.30;;;3.00;;
55224;SDS011;41091;49.400;8.684;2023-09-30T04:38:02;5.25;;;2.53;;
55224;SDS011;41091;49.400;8.684;2023-09-30T04:40:30;5.43;;;2.75;;
55224;SDS011;41091;49.400;8.684;2023-09-30T04:42:55;9.07;;;3.08;;
55224;SDS011;41091;49.400;8.684;2023-09-30T04:45:24;4.10;;;2.63;;
55224;SDS011;41091;49.400;8.684;2023-09-30T04:47:53;8.18;;;2.97;;
55224;SDS011;41091;49.400;8.684;2023-09-30T04:52:49;6.03;;;2.33;;
55224;SDS011;41091;49.400;8.684;2023-09-30T04:55:18;5.38;;;3.10;;
55224;SDS011;41091;49.400;8.684;2023-09-30T04:57:46;14.00;;;2.78;;
55224;SDS011;41091;49.400;8.684;2023-09-30T05:00:15;4.45;;;2.38;;
55224;SDS011;41091;49.400;8.684;2023-09-30T05:02:44;8.25;;;3.15;;
55224;SDS011;41091;49.400;8.684;2023-09-30T05:05:15;3.70;;;3.05;;
55224;SDS011;41091;49.400;8.684;2023-09-30T05:07:40;6.93;;;2.95;;
55224;SDS011;41091;49.400;8.684;2023-09-30T05:10:06;6.85;;;2.50;;
55224;SDS011;41091;49.400;8.684;2023-09-30T05:12:36;9.38;;;3.17;;
55224;SDS011;41091;49.400;8.684;2023-09-30T05:15:01;6.03;;;3.15;;
55224;SDS011;41091;49.400;8.684;2023-09-30T05:17:31;5.63;;;3.57;;
55224;SDS011;41091;49.400;8.684;2023-09-30T05:19:57;6.68;;;3.75;;
55224;SDS011;41091;49.400;8.684;2023-09-30T05:22:22;11.85;;;3.92;;
55224;SDS011;41091;49.400;8.684;2023-09-30T05:24:52;5.90;;;2.92;;
55224;SDS011;41091;49.400;8.684;2023-09-30T05:27:17;5.97;;;3.35;;
55224;SDS011;41091;49.400;8.684;2023-09-30T05:29:43;11.38;;;3.47;;
55224;SDS011;41091;49.400;8.684;2023-09-30T05:32:11;2.95;;;2.60;;
55224;SDS011;41091;49.400;8.684;2023-09-30T05:34:37;8.63;;;3.78;;
55224;SDS011;41091;49.400;8.684;2023-09-30T05:37:04;4.85;;;2.97;;
55224;SDS011;41091;49.400;8.684;2023-09-30T05:39:31;8.23;;;4.75;;
55224;SDS011;41091;49.400;8.684;2023-09-30T05:42:04;9.15;;;4.20;;
55224;SDS011;41091;49.400;8.684;2023-09-30T05:44:31;9.98;;;4.50;;
55224;SDS011;41091;49.400;8.684;2023-09-30T05:46:57;12.45;;;4.18;;
55224;SDS011;41091;49.400;8.684;2023-09-30T05:49:22;10.73;;;3.95;;
55224;SDS011;41091;49.400;8.684;2023-09-30T05:51:52;12.27;;;4.03;;
55224;SDS011;41091;49.400;8.684;2023-09-30T05:54:18;7.30;;;3.53;;
55224;SDS011;41091;49.400;8.684;2023-09-30T05:56:43;6.75;;;3.38;;
55224;SDS011;41091;49.400;8.684;2023-09-30T05:59:09;7.75;;;3.83;;
55224;SDS011;41091;49.400;8.684;2023-09-30T06:01:34;7.50;;;3.60;;
55224;SDS011;41091;49.400;8.684;2023-09-30T06:04:05;9.80;;;3.35;;
55224;SDS011;41091;49.400;8.684;2023-09-30T06:06:30;9.90;;;3.63;;
55224;SDS011;41091;49.400;8.684;2023-09-30T06:08:58;5.78;;;3.50;;
55224;SDS011;41091;49.400;8.684;2023-09-30T06:11:26;8.38;;;3.40;;
55224;SDS011;41091;49.400;8.684;2023-09-30T06:13:56;8.75;;;3.83;;
55224;SDS011;41091;49.400;8.684;2023-09-30T06:16:26;5.13;;;3.97;;
55224;SDS011;41091;49.400;8.684;2023-09-30T06:18:52;15.23;;;4.32;;
55224;SDS011;41091;49.400;8.684;2023-09-30T06:21:18;9.60;;;3.92;;
55224;SDS011;41091;49.400;8.684;2023-09-30T06:23:46;8.48;;;4.18;;
55224;SDS011;41091;49.400;8.684;2023-09-30T06:26:14;10.35;;;4.15;;
55224;SDS011;41091;49.400;8.684;2023-09-30T06:28:41;6.47;;;3.80;;
55224;SDS011;41091;49.400;8.684;2023-09-30T06:31:12;6.43;;;3.88;;
55224;SDS011;41091;49.400;8.684;2023-09-30T06:33:40;7.45;;;3.85;;
55224;SDS011;41091;49.400;8.684;2023-09-30T06:36:09;6.40;;;3.80;;
55224;SDS011;41091;49.400;8.684;2023-09-30T06:38:41;9.80;;;4.20;;
55224;SDS011;41091;49.400;8.684;2023-09-30T06:41:08;8.52;;;3.65;;
55224;SDS011;41091;49.400;8.684;2023-09-30T06:43:33;10.43;;;3.83;;
55224;SDS011;41091;49.400;8.684;2023-09-30T06:46:05;7.53;;;3.85;;
55224;SDS011;41091;49.400;8.684;2023-09-30T06:48:32;9.75;;;3.60;;
55224;SDS011;41091;49.400;8.684;2023-09-30T06:50:58;8.98;;;4.10;;
55224;SDS011;41091;49.400;8.684;2023-09-30T06:53:26;5.15;;;3.00;;
55224;SDS011;41091;49.400;8.684;2023-09-30T06:55:51;7.35;;;3.30;;
55224;SDS011;41091;49.400;8.684;2023-09-30T06:58:17;8.80;;;3.60;;
55224;SDS011;41091;49.400;8.684;2023-09-30T07:00:46;10.98;;;3.33;;
55224;SDS011;41091;49.400;8.684;2023-09-30T07:03:14;10.27;;;3.60;;
55224;SDS011;41091;49.400;8.684;2023-09-30T07:05:40;13.02;;;6.07;;
55224;SDS011;41091;49.400;8.684;2023-09-30T07:08:09;9.52;;;3.00;;
55224;SDS011;41091;49.400;8.684;2023-09-30T07:10:34;7.75;;;3.33;;
55224;SDS011;41091;49.400;8.684;2023-09-30T07:13:04;7.82;;;3.38;;
55224;SDS011;41091;49.400;8.684;2023-09-30T07:15:31;6.63;;;2.97;;
55224;SDS011;41091;49.400;8.684;2023-09-30T07:17:57;9.38;;;3.40;;
55224;SDS011;41091;49.400;8.684;2023-09-30T07:20:22;8.45;;;2.72;;
55224;SDS011;41091;49.400;8.684;2023-09-30T07:22:48;7.53;;;3.40;;
55224;SDS011;41091;49.400;8.684;2023-09-30T07:25:13;5.18;;;2.85;;
55224;SDS011;41091;49.400;8.684;2023-09-30T07:27:41;7.50;;;3.33;;
55224;SDS011;41091;49.400;8.684;2023-09-30T07:30:09;6.30;;;2.80;;
55224;SDS011;41091;49.400;8.684;2023-09-30T07:32:37;5.35;;;2.63;;
55224;SDS011;41091;49.400;8.684;2023-09-30T07:35:02;7.68;;;3.25;;
55224;SDS011;41091;49.400;8.684;2023-09-30T07:37:28;14.23;;;2.83;;
55224;SDS011;41091;49.400;8.684;2023-09-30T07:39:53;4.25;;;2.38;;
55224;SDS011;41091;49.400;8.684;2023-09-30T07:42:19;13.80;;;3.40;;
55224;SDS011;41091;49.400;8.684;2023-09-30T07:44:44;4.97;;;2.78;;
55224;SDS011;41091;49.400;8.684;2023-09-30T07:47:12;6.18;;;2.42;;
55224;SDS011;41091;49.400;8.684;2023-09-30T07:49:37;8.27;;;2.63;;
55224;SDS011;41091;49.400;8.684;2023-09-30T07:52:03;10.00;;;2.60;;
55224;SDS011;41091;49.400;8.684;2023-09-30T07:54:28;8.05;;;2.33;;
55224;SDS011;41091;49.400;8.684;2023-09-30T07:56:54;3.92;;;2.70;;
55224;SDS011;41091;49.400;8.684;2023-09-30T07:59:20;8.02;;;2.40;;
55224;SDS011;41091;49.400;8.684;2023-09-30T08:01:47;6.25;;;2.50;;
55224;SDS011;41091;49.400;8.684;2023-09-30T08:04:13;6.47;;;2.90;;
55224;SDS011;41091;49.400;8.684;2023-09-30T08:06:40;10.10;;;3.30;;
55224;SDS011;41091;49.400;8.684;2023-09-30T08:09:08;7.25;;;2.90;;
55224;SDS011;41091;49.400;8.684;2023-09-30T08:11:36;9.85;;;3.83;;
55224;SDS011;41091;49.400;8.684;2023-09-30T08:14:04;9.13;;;3.47;;
55224;SDS011;41091;49.400;8.684;2023-09-30T08:16:34;7.20;;;3.05;;
55224;SDS011;41091;49.400;8.684;2023-09-30T08:19:03;8.40;;;2.92;;
55224;SDS011;41091;49.400;8.684;2023-09-30T08:21:28;7.30;;;3.13;;
55224;SDS011;41091;49.400;8.684;2023-09-30T08:23:54;9.25;;;3.03;;
55224;SDS011;41091;49.400;8.684;2023-09-30T08:26:19;10.93;;;2.80;;
55224;SDS011;41091;49.400;8.684;2023-09-30T08:28:45;5.43;;;2.28;;
55224;SDS011;41091;49.400;8.684;2023-09-30T08:31:12;10.35;;;3.88;;
55224;SDS011;41091;49.400;8.684;2023-09-30T08:33:38;6.65;;;2.53;;
55224;SDS011;41091;49.400;8.684;2023-09-30T08:36:06;4.88;;;2.55;;
55224;SDS011;41091;49.400;8.684;2023-09-30T08:38:35;10.77;;;3.55;;
55224;SDS011;41091;49.400;8.684;2023-09-30T08:41:01;6.80;;;2.67;;
55224;SDS011;41091;49.400;8.684;2023-09-30T08:43:29;8.13;;;2.72;;
55224;SDS011;41091;49.400;8.684;2023-09-30T08:45:58;5.85;;;2.17;;
55224;SDS011;41091;49.400;8.684;2023-09-30T08:48:25;5.38;;;2.22;;
55224;SDS011;41091;49.400;8.684;2023-09-30T08:50:54;5.70;;;2.50;;
55224;SDS011;41091;49.400;8.684;2023-09-30T08:53:19;6.20;;;2.70;;
55224;SDS011;41091;49.400;8.684;2023-09-30T08:55:47;8.80;;;2.58;;
55224;SDS011;41091;49.400;8.684;2023-09-30T08:58:13;5.80;;;2.53;;
55224;SDS011;41091;49.400;8.684;2023-09-30T09:00:40;9.73;;;3.55;;
55224;SDS011;41091;49.400;8.684;2023-09-30T09:03:07;6.85;;;2.72;;
55224;SDS011;41091;49.400;8.684;2023-09-30T09:05:33;8.02;;;2.85;;
55224;SDS011;41091;49.400;8.684;2023-09-30T09:07:58;8.60;;;3.00;;
55224;SDS011;41091;49.400;8.684;2023-09-30T09:10:26;4.70;;;2.65;;
55224;SDS011;41091;49.400;8.684;2023-09-30T09:12:57;5.18;;;2.90;;
55224;SDS011;41091;49.400;8.684;2023-09-30T09:15:27;5.90;;;2.30;;
55224;SDS011;41091;49.400;8.684;2023-09-30T09:17:56;7.35;;;2.97;;
55224;SDS011;41091;49.400;8.684;2023-09-30T09:20:22;10.05;;;2.88;;
55224;SDS011;41091;49.400;8.684;2023-09-30T09:22:51;7.80;;;2.60;;
55224;SDS011;41091;49.400;8.684;2023-09-30T09:25:23;7.68;;;2.97;;
55224;SDS011;41091;49.400;8.684;2023-09-30T09:27:53;4.18;;;2.42;;
55224;SDS011;41091;49.400;8.684;2023-09-30T09:30:23;3.75;;;2.55;;
55224;SDS011;41091;49.400;8.684;2023-09-30T09:33:04;6.13;;;2.53;;
55224;SDS011;41091;49.400;8.684;2023-09-30T09:35:31;9.85;;;2.42;;
55224;SDS011;41091;49.400;8.684;2023-09-30T09:38:03;5.63;;;3.00;;
55224;SDS011;41091;49.400;8.684;2023-09-30T09:40:31;4.60;;;2.65;;
55224;SDS011;41091;49.400;8.684;2023-09-30T09:43:01;5.50;;;2.42;;
55224;SDS011;41091;49.400;8.684;2023-09-30T09:45:30;8.40;;;2.70;;
55224;SDS011;41091;49.400;8.684;2023-09-30T09:48:00;9.73;;;2.83;;
55224;SDS011;41091;49.400;8.684;2023-09-30T09:50:26;6.82;;;2.28;;
55224;SDS011;41091;49.400;8.684;2023-09-30T09:52:54;5.82;;;2.08;;
55224;SDS011;41091;49.400;8.684;2023-09-30T09:55:24;10.60;;;3.30;;
55224;SDS011;41091;49.400;8.684;2023-09-30T09:57:50;4.47;;;2.80;;
55224;SDS011;41091;49.400;8.684;2023-09-30T10:00:19;5.07;;;2.10;;
55224;SDS011;41091;49.400;8.684;2023-09-30T10:02:49;5.50;;;2.28;;
55224;SDS011;41091;49.400;8.684;2023-09-30T10:05:15;5.18;;;2.20;;
55224;SDS011;41091;49.400;8.684;2023-09-30T10:07:44;6.60;;;2.25;;
55224;SDS011;41091;49.400;8.684;2023-09-30T10:10:13;13.55;;;2.50;;
55224;SDS011;41091;49.400;8.684;2023-09-30T10:12:40;9.20;;;2.15;;
55224;SDS011;41091;49.400;8.684;2023-09-30T10:15:48;4.07;;;1.85;;
55224;SDS011;41091;49.400;8.684;2023-09-30T10:17:56;8.55;;;2.55;;
55224;SDS011;41091;49.400;8.684;2023-09-30T10:20:28;7.47;;;2.75;;
55224;SDS011;41091;49.400;8.684;2023-09-30T10:25:41;7.68;;;3.22;;
55224;SDS011;41091;49.400;8.684;2023-09-30T10:33:35;9.90;;;3.17;;
55224;SDS011;41091;49.400;8.684;2023-09-30T10:36:03;9.70;;;2.80;;
55224;SDS011;41091;49.400;8.684;2023-09-30T10:40:55;8.13;;;2.75;;
55224;SDS011;41091;49.400;8.684;2023-09-30T10:45:59;3.55;;;2.40;;
55224;SDS011;41091;49.400;8.684;2023-09-30T10:53:17;7.13;;;3.03;;
55224;SDS011;41091;49.400;8.684;2023-09-30T10:55:44;7.55;;;2.33;;
55224;SDS011;41091;49.400;8.684;2023-09-30T10:58:10;6.57;;;3.35;;
55224;SDS011;41091;49.400;8.684;2023-09-30T11:00:35;11.13;;;3.33;;
55224;SDS011;41091;49.400;8.684;2023-09-30T11:03:02;12.73;;;3.65;;
55224;SDS011;41091;49.400;8.684;2023-09-30T11:05:30;8.68;;;3.50;;
55224;SDS011;41091;49.400;8.684;2023-09-30T11:07:59;5.43;;;2.88;;
55224;SDS011;41091;49.400;8.684;2023-09-30T11:10:31;9.75;;;3.47;;
55224;SDS011;41091;49.400;8.684;2023-09-30T11:12:59;8.15;;;3.45;;
55224;SDS011;41091;49.400;8.684;2023-09-30T11:15:25;10.23;;;3.45;;
55224;SDS011;41091;49.400;8.684;2023-09-30T11:17:53;6.35;;;3.55;;
55224;SDS011;41091;49.400;8.684;2023-09-30T11:20:19;13.13;;;4.18;;
55224;SDS011;41091;49.400;8.684;2023-09-30T11:22:46;6.40;;;3.45;;
55224;SDS011;41091;49.400;8.684;2023-09-30T11:25:17;12.07;;;4.05;;
55224;SDS011;41091;49.400;8.684;2023-09-30T11:27:46;8.90;;;3.65;;
55224;SDS011;41091;49.400;8.684;2023-09-30T11:30:12;5.25;;;3.13;;
55224;SDS011;41091;49.400;8.684;2023-09-30T11:32:38;8.25;;;3.33;;
55224;SDS011;41091;49.400;8.684;2023-09-30T11:35:05;9.50;;;3.70;;
55224;SDS011;41091;49.400;8.684;2023-09-30T11:37:33;7.03;;;3.35;;
55224;SDS011;41091;49.400;8.684;2023-09-30T11:40:09;6.07;;;3.40;;
55224;SDS011;41091;49.400;8.684;2023-09-30T11:42:38;12.02;;;4.03;;
55224;SDS011;41091;49.400;8.684;2023-09-30T11:45:17;10.23;;;3.55;;
55224;SDS011;41091;49.400;8.684;2023-09-30T11:47:44;5.28;;;3.28;;
55224;SDS011;41091;49.400;8.684;2023-09-30T11:50:09;8.32;;;3.80;;
55224;SDS011;41091;49.400;8.684;2023-09-30T11:52:36;19.73;;;4.25;;
55224;SDS011;41091;49.400;8.684;2023-09-30T11:55:06;14.27;;;4.93;;
55224;SDS011;41091;49.400;8.684;2023-09-30T11:57:32;11.25;;;4.55;;
55224;SDS011;41091;49.400;8.684;2023-09-30T11:59:59;7.32;;;4.70;;
55224;SDS011;41091;49.400;8.684;2023-09-30T12:02:27;11.85;;;4.13;;
55224;SDS011;41091;49.400;8.684;2023-09-30T12:04:55;9.15;;;3.70;;
55224;SDS011;41091;49.400;8.684;2023-09-30T12:07:20;7.00;;;4.07;;
55224;SDS011;41091;49.400;8.684;2023-09-30T12:09:45;14.13;;;4.07;;
55224;SDS011;41091;49.400;8.684;2023-09-30T12:12:13;6.22;;;3.83;;
55224;SDS011;41091;49.400;8.684;2023-09-30T12:14:39;8.90;;;4.00;;
55224;SDS011;41091;49.400;8.684;2023-09-30T12:17:07;10.35;;;4.20;;
55224;SDS011;41091;49.400;8.684;2023-09-30T12:19:38;10.52;;;3.85;;
55224;SDS011;41091;49.400;8.684;2023-09-30T12:22:03;10.15;;;4.45;;
55224;SDS011;41091;49.400;8.684;2023-09-30T12:24:28;8.98;;;4.82;;
55224;SDS011;41091;49.400;8.684;2023-09-30T12:26:56;7.18;;;4.53;;
55224;SDS011;41091;49.400;8.684;2023-09-30T12:29:23;10.05;;;4.70;;
55224;SDS011;41091;49.400;8.684;2023-09-30T12:31:50;8.50;;;3.60;;
55224;SDS011;41091;49.400;8.684;2023-09-30T12:36:44;8.47;;;4.27;;
55224;SDS011;41091;49.400;8.684;2023-09-30T12:39:10;12.95;;;4.97;;
55224;SDS011;41091;49.400;8.684;2023-09-30T12:44:06;13.15;;;4.97;;
55224;SDS011;41091;49.400;8.684;2023-09-30T12:46:32;12.07;;;5.03;;
55224;SDS011;41091;49.400;8.684;2023-09-30T12:49:01;13.73;;;4.75;;
55224;SDS011;41091;49.400;8.684;2023-09-30T12:51:27;10.38;;;4.25;;
55224;SDS011;41091;49.400;8.684;2023-09-30T12:53:52;14.98;;;5.10;;
55224;SDS011;41091;49.400;8.684;2023-09-30T12:56:20;7.32;;;4.18;;
55224;SDS011;41091;49.400;8.684;2023-09-30T12:58:48;7.20;;;4.13;;
55224;SDS011;41091;49.400;8.684;2023-09-30T13:01:16;9.15;;;4.07;;
55224;SDS011;41091;49.400;8.684;2023-09-30T13:03:44;10.45;;;4.60;;
55224;SDS011;41091;49.400;8.684;2023-09-30T13:06:10;13.73;;;4.50;;
55224;SDS011;41091;49.400;8.684;2023-09-30T13:08:35;18.65;;;5.50;;
55224;SDS011;41091;49.400;8.684;2023-09-30T13:11:01;21.15;;;6.00;;
55224;SDS011;41091;49.400;8.684;2023-09-30T13:13:31;10.35;;;4.63;;
55224;SDS011;41091;49.400;8.684;2023-09-30T13:16:00;30.27;;;6.57;;
55224;SDS011;41091;49.400;8.684;2023-09-30T13:18:25;13.68;;;4.72;;
55224;SDS011;41091;49.400;8.684;2023-09-30T13:20:53;13.52;;;4.57;;
55224;SDS011;41091;49.400;8.684;2023-09-30T13:23:19;13.90;;;5.35;;
55224;SDS011;41091;49.400;8.684;2023-09-30T13:25:47;9.32;;;4.07;;
55224;SDS011;41091;49.400;8.684;2023-09-30T13:28:12;11.88;;;4.40;;
55224;SDS011;41091;49.400;8.684;2023-09-30T13:30:38;8.50;;;4.65;;
55224;SDS011;41091;49.400;8.684;2023-09-30T13:33:04;7.57;;;3.67;;
55224;SDS011;41091;49.400;8.684;2023-09-30T13:35:30;9.50;;;4.45;;
55224;SDS011;41091;49.400;8.684;2023-09-30T13:37:55;8.98;;;4.20;;
55224;SDS011;41091;49.400;8.684;2023-09-30T13:40:20;9.40;;;4.03;;
55224;SDS011;41091;49.400;8.684;2023-09-30T13:42:46;10.18;;;4.38;;
55224;SDS011;41091;49.400;8.684;2023-09-30T13:45:12;6.97;;;3.60;;
55224;SDS011;41091;49.400;8.684;2023-09-30T13:47:44;11.02;;;3.78;;
55224;SDS011;41091;49.400;8.684;2023-09-30T13:50:14;11.07;;;4.53;;
55224;SDS011;41091;49.400;8.684;2023-09-30T13:52:41;7.78;;;3.72;;
55224;SDS011;41091;49.400;8.684;2023-09-30T13:55:08;9.30;;;4.10;;
55224;SDS011;41091;49.400;8.684;2023-09-30T13:57:34;6.38;;;3.33;;
55224;SDS011;41091;49.400;8.684;2023-09-30T14:00:00;6.63;;;3.55;;
55224;SDS011;41091;49.400;8.684;2023-09-30T14:02:28;12.10;;;4.00;;
55224;SDS011;41091;49.400;8.684;2023-09-30T14:04:54;13.40;;;4.55;;
55224;SDS011;41091;49.400;8.684;2023-09-30T14:07:24;8.93;;;4.13;;
55224;SDS011;41091;49.400;8.684;2023-09-30T14:09:50;9.50;;;4.30;;
55224;SDS011;41091;49.400;8.684;2023-09-30T14:12:17;7.90;;;4.15;;
55224;SDS011;41091;49.400;8.684;2023-09-30T14:14:45;8.23;;;3.60;;
55224;SDS011;41091;49.400;8.684;2023-09-30T14:17:10;8.77;;;4.50;;
55224;SDS011;41091;49.400;8.684;2023-09-30T14:19:42;7.60;;;3.75;;
55224;SDS011;41091;49.400;8.684;2023-09-30T14:22:07;9.52;;;4.63;;
55224;SDS011;41091;49.400;8.684;2023-09-30T14:24:33;11.85;;;4.78;;
55224;SDS011;41091;49.400;8.684;2023-09-30T14:27:04;6.50;;;3.78;;
55224;SDS011;41091;49.400;8.684;2023-09-30T14:29:30;8.82;;;3.95;;
55224;SDS011;41091;49.400;8.684;2023-09-30T14:31:59;7.43;;;3.63;;
55224;SDS011;41091;49.400;8.684;2023-09-30T14:34:26;11.60;;;4.53;;
55224;SDS011;41091;49.400;8.684;2023-09-30T14:36:52;9.27;;;4.18;;
55224;SDS011;41091;49.400;8.684;2023-09-30T14:39:17;10.13;;;4.15;;
55224;SDS011;41091;49.400;8.684;2023-09-30T14:41:45;8.05;;;4.80;;
55224;SDS011;41091;49.400;8.684;2023-09-30T14:44:10;7.72;;;4.05;;
55224;SDS011;41091;49.400;8.684;2023-09-30T14:46:37;6.53;;;3.58;;
55224;SDS011;41091;49.400;8.684;2023-09-30T14:49:08;9.75;;;3.88;;
55224;SDS011;41091;49.400;8.684;2023-09-30T14:51:34;10.23;;;4.60;;
55224;SDS011;41091;49.400;8.684;2023-09-30T14:53:59;9.57;;;4.43;;
55224;SDS011;41091;49.400;8.684;2023-09-30T14:56:25;8.60;;;4.40;;
55224;SDS011;41091;49.400;8.684;2023-09-30T14:58:51;8.82;;;3.65;;
55224;SDS011;41091;49.400;8.684;2023-09-30T15:01:16;9.00;;;4.22;;
55224;SDS011;41091;49.400;8.684;2023-09-30T15:03:45;7.13;;;3.45;;
55224;SDS011;41091;49.400;8.684;2023-09-30T15:06:13;10.38;;;4.07;;
55224;SDS011;41091;49.400;8.684;2023-09-30T15:08:38;6.57;;;3.70;;
55224;SDS011;41091;49.400;8.684;2023-09-30T15:11:04;11.40;;;3.88;;